Terminal Aerodrome Forecast
Issued by NWS

Home | Current Version | Previous Version | Text Only | Print | Product List | Glossary On
Versions: 1 2 3 4 5 6 7 8 9 10 11 12 13 14 15 16 17 18 19 20
000
FTUS43 KGRB 291900 AAA
TAFATW
TAF AMD
KATW 291900Z 2919/3018 04007KT P6SM BKN020 OVC035
     FM292100 06010KT P6SM SCT025 BKN035
     FM292300 06006KT P6SM SCT050
     FM300400 04006KT P6SM SCT070
     FM301200 07007KT P6SM SKC=

USA.gov is the U.S. government's official web portal to all federal, state and local government web resources and services.